Terminal Aerodrome Forecast
Issued by NWS

Current Version | Previous Version | Text Only | Print | Product List | Glossary On
Versions: 1 2 3 4 5 6 7 8 9 10 11 12 13 14 15 16
000
FTUS44 KLZK 282300
TAFBPK
TAF
KBPK 282335Z 2900/2924 17007KT P6SM SCT250 WS020/21040KT
     FM290100 17009KT P6SM SCT250 WS020/21040KT
     FM290900 18008KT P6SM OVC015 WS020/22040KT
     FM291600 19013G23KT P6SM SCT025 WS020/22035KT=

USA.gov is the U.S. government's official web portal to all federal, state and local government web resources and services.